Map

Track Data

SID SEASON NUMBER BASIN SUBBASIN NAME ISO_TIME NATURE LAT LON WMO_WIND WMO_PRES WMO_AGENCY TRACK_TYPE DIST2LAND LANDFALL IFLAG USA_AGENCY USA_ATCF_ID USA_LAT USA_LON USA_RECORD USA_STATUS USA_WIND USA_PRES USA_SSHS USA_R34_NE USA_R34_SE USA_R34_SW USA_R34_NW USA_R50_NE USA_R50_SE USA_R50_SW USA_R50_NW USA_R64_NE USA_R64_SE USA_R64_SW USA_R64_NW USA_POCI USA_ROCI USA_RMW USA_EYE TOKYO_LAT TOKYO_LON TOKYO_GRADE TOKYO_WIND TOKYO_PRES TOKYO_R50_DIR TOKYO_R50_LONG TOKYO_R50_SHORT TOKYO_R30_DIR TOKYO_R30_LONG TOKYO_R30_SHORT TOKYO_LAND CMA_LAT CMA_LON CMA_CAT CMA_WIND CMA_PRES HKO_LAT HKO_LON HKO_CAT HKO_WIND HKO_PRES NEWDELHI_LAT NEWDELHI_LON NEWDELHI_GRADE NEWDELHI_WIND NEWDELHI_PRES NEWDELHI_CI NEWDELHI_DP NEWDELHI_POCI REUNION_LAT REUNION_LON REUNION_TYPE REUNION_WIND REUNION_PRES REUNION_TNUM REUNION_CI REUNION_RMW REUNION_R34_NE REUNION_R34_SE REUNION_R34_SW REUNION_R34_NW REUNION_R50_NE REUNION_R50_SE REUNION_R50_SW REUNION_R50_NW REUNION_R64_NE REUNION_R64_SE REUNION_R64_SW REUNION_R64_NW BOM_LAT BOM_LON BOM_TYPE BOM_WIND BOM_PRES BOM_TNUM BOM_CI BOM_RMW BOM_R34_NE BOM_R34_SE BOM_R34_SW BOM_R34_NW BOM_R50_NE BOM_R50_SE BOM_R50_SW BOM_R50_NW BOM_R64_NE BOM_R64_SE BOM_R64_SW BOM_R64_NW BOM_ROCI BOM_POCI BOM_EYE BOM_POS_METHOD BOM_PRES_METHOD NADI_LAT NADI_LON NADI_CAT NADI_WIND NADI_PRES WELLINGTON_LAT WELLINGTON_LON WELLINGTON_WIND WELLINGTON_PRES DS824_LAT DS824_LON DS824_STAGE DS824_WIND DS824_PRES TD9636_LAT TD9636_LON TD9636_STAGE TD9636_WIND TD9636_PRES TD9635_LAT TD9635_LON TD9635_WIND TD9635_PRES TD9635_ROCI NEUMANN_LAT NEUMANN_LON NEUMANN_CLASS NEUMANN_WIND NEUMANN_PRES MLC_LAT MLC_LON MLC_CLASS MLC_WIND MLC_PRES USA_GUST BOM_GUST BOM_GUST_PER REUNION_GUST REUNION_GUST_PER USA_SEAHGT USA_SEARAD_NE USA_SEARAD_SE USA_SEARAD_SW USA_SEARAD_NW STORM_SPEED STORM_DIR
1972060S08097 1972 21 SI WA ANGELA 1972-02-29 00:00:00 TS -8.00000 97.0000 1004 bom main 732 732 O_____O__OO___ jtwc_sh SH221972 -8.00000 97.0000 10 -1 -8.00000 97.0000 1004 -8.00000 97.0000 TC 20 1004 -8.00000 97.0000 1 10 10 135
1972060S08097 1972 21 SI WA ANGELA 1972-02-29 03:00:00 TS -8.35755 97.3610 1004 bom main 732 724 P_____O__PP___ SH221972 -8.34003 97.3374 12 -1 -8.40000 97.4000 1004 -8.34004 97.3399 TC 20 1004 -8.36766 97.3900 1 11 10 135
1972060S08097 1972 21 SI WA ANGELA 1972-02-29 06:00:00 TS -8.70762 97.7149 1004 bom main 732 724 O_____O__OP___ jtwc_sh SH221972 -8.70000 97.7000 15 -1 -8.70000 97.7000 1004 -8.70000 97.7000 TC 20 1004 -8.73811 97.7743 1 12 11 135
1972060S08097 1972 21 SI WA ANGELA 1972-02-29 09:00:00 TS -9.09840 98.1078 1003 bom main 736 729 P_____O__PP___ SH221972 -9.09250 98.1000 15 -1 -9.10000 98.1000 1003 -9.09248 98.0926 TC 22 1003 -9.11449 98.1465 1 13 11 136
1972060S08097 1972 21 SI WA ANGELA 1972-02-29 12:00:00 TS -9.50000 98.5000 1003 bom main 741 741 O_____O__OO___ jtwc_sh SH221972 -9.50000 98.5000 15 -1 -9.50000 98.5000 1003 -9.50000 98.5000 TC 25 1003 -9.50000 98.5000 1 15 11 137
1972060S08097 1972 21 SI WA ANGELA 1972-02-29 15:00:00 TS -9.90342 98.8685 1003 bom main 748 748 P_____O__PP___ SH221972 -9.90741 98.8501 15 -1 -9.90000 98.9000 1003 -9.90748 98.9075 TC 25 1002 -9.89479 98.8348 1 15 11 138
1972060S08097 1972 21 SI WA ANGELA 1972-02-29 18:00:00 TS -10.2973 99.2351 1002 bom main 764 748 O_____O__OP___ jtwc_sh SH221972 -10.3000 99.2000 15 -1 -10.3000 99.3000 1002 -10.3000 99.3000 TC 25 1002 -10.2867 99.1756 1 15 10 137
1972060S08097 1972 21 SI WA ANGELA 1972-02-29 21:00:00 TS -10.6554 99.5783 1002 bom main 755 740 P_____O__PP___ SH221972 -10.6723 99.5626 15 -1 -10.6000 99.6000 1002 -10.6722 99.6127 TC 25 1002 -10.6602 99.5536 1 15 10 133
1972060S08097 1972 21 SI WA ANGELA 1972-03-01 00:00:00 TS -11.0000 100.000 1002 bom main 740 713 O_____O__OO___ jtwc_sh SH221972 -11.0000 100.000 15 -1 -11.0000 100.000 1002 -11.0000 100.000 TC 25 1002 -11.0000 100.000 1 15 12 122
1972060S08097 1972 21 SI WA ANGELA 1972-03-01 03:00:00 TS -11.2763 100.578 1001 bom main 713 684 P_____O__PP___ SH221972 -11.2650 100.563 17 -1 -11.3000 100.600 1001 -11.2652 100.613 TC 27 1001 -11.2862 100.553 1 13 113
1972060S08097 1972 21 SI WA ANGELA 1972-03-01 06:00:00 TS -11.5076 101.235 1000 bom main 685 663 O_____O__OP___ jtwc_sh SH221972 -11.5000 101.200 20 -1 -11.5000 101.300 1000 -11.5000 101.300 TC 30 1000 -11.5378 101.175 1 14 110
1972060S08097 1972 21 SI WA ANGELA 1972-03-01 09:00:00 TS -11.7440 101.869 999 bom main 657 648 P_____O__PP___ SH221972 -11.7500 101.850 20 -1 -11.7000 101.900 999 -11.7498 101.908 TC 32 999 -11.7704 101.835 1 13 112
1972060S08097 1972 21 SI WA ANGELA 1972-03-01 12:00:00 TS -12.0000 102.500 998 bom main 653 648 O_____O__OO___ jtwc_sh SH221972 -12.0000 102.500 20 -1 -12.0000 102.500 998 -12.0000 102.500 TC 35 998 -12.0000 102.500 1 13 113
1972060S08097 1972 21 SI WA ANGELA 1972-03-01 15:00:00 TS -12.2686 103.106 997 bom main 657 643 P_____O__PP___ SH221972 -12.2498 103.100 22 -1 -12.3000 103.100 997 -12.2574 103.100 TC 35 997 -12.2862 103.129 1 13 113
1972060S08097 1972 21 SI WA ANGELA 1972-03-01 18:00:00 TS -12.5134 103.711 996 bom main 643 636 O_____O__OP___ jtwc_sh SH221972 -12.5000 103.700 25 -1 -12.5000 103.700 996 -12.5000 103.700 TC 35 996 -12.5670 103.757 1 13 112
1972060S08097 1972 21 SI WA ANGELA 1972-03-01 21:00:00 TS -12.7578 104.355 995 bom main 643 636 P_____O__PP___ SH221972 -12.7724 104.350 27 -1 -12.7000 104.400 995 -12.7298 104.292 TC 37 995 -12.8143 104.382 1 13 110
1972060S08097 1972 21 SI WA ANGELA 1972-03-02 00:00:00 TS -12.9600 104.960 994 bom main 645 636 O_____O__OO___ jtwc_sh SH221972 -13.0000 105.000 30 -1 -12.9000 104.900 994 4 -12.9000 104.900 TC 40 994 -13.0000 105.000 1 30 12 104
1972060S08097 1972 21 SI WA ANGELA 1972-03-02 03:00:00 TS -13.0694 105.593 994 bom main 644 629 P_____O__PP___ SH221972 -13.1448 105.608 32 -1 -13.0000 105.600 994 -12.9724 105.550 TC 40 994 -13.0850 105.600 1 32 12 97
1972060S08097 1972 21 SI WA ANGELA 1972-03-02 06:00:00 TS -13.0970 106.189 994 bom main 629 616 O_____O__OP_O_ jtwc_sh SH221972 -13.2000 106.200 35 0 -13.0000 106.200 994 -13.0000 106.200 TC 40 994 -13.1091 106.194 1 35 -13.0000 106.000 TC 40 994 12 92
1972060S08097 1972 21 SI WA ANGELA 1972-03-02 09:00:00 TS -13.1024 106.773 995 bom main 614 605 P_____O__PP_P_ SH221972 -13.1573 106.793 37 0 -13.1000 106.800 995 -13.0498 106.800 TC 40 994 -13.1037 106.790 1 37 -12.9903 106.555 TC 40 994 11 89
1972060S08097 1972 21 SI WA ANGELA 1972-03-02 12:00:00 TS -13.0870 107.361 995 bom main 603 596 O_____O__OO_O_ jtwc_sh SH221972 -13.1000 107.400 40 0 -13.1000 107.400 995 -13.1000 107.400 TC 40 995 -13.1000 107.400 2 40 -13.0000 107.100 TC 40 994 12 91
1972060S08097 1972 21 SI WA ANGELA 1972-03-02 15:00:00 TS -13.1308 107.968 995 bom main 595 594 P_____O__PP_P_ SH221972 -13.1349 108.042 35 0 -13.2000 108.000 995 -13.1500 108.058 TC 37 995 -13.1225 108.030 2 32 -13.0423 107.635 TC 40 994 12 94
1972060S08097 1972 21 SI WA ANGELA 1972-03-02 18:00:00 TS -13.1782 108.613 996 bom main 605 583 O_____O__OP_O_ jtwc_sh SH221972 -13.2000 108.700 30 -1 -13.2000 108.700 996 -13.2000 108.700 TC 35 996 -13.1691 108.677 2 25 -13.1000 108.200 TC 40 995 12 95
1972060S08097 1972 21 SI WA ANGELA 1972-03-02 21:00:00 TS -13.2408 109.240 996 bom main 583 579 P_____O__PP_P_ SH221972 -13.2553 109.353 20 -1 -13.3000 109.300 996 -13.2501 109.272 TC 35 996 -13.2311 109.335 2 17 -13.1529 108.830 TC 40 995 12 95
1972060S08097 1972 21 SI WA ANGELA 1972-03-03 00:00:00 TS -13.2833 109.850 996 bom main 577 O_____O__OO_O_ jtwc_sh SH221972 -13.3000 110.000 10 -1 -13.3000 109.800 996 -13.3000 109.800 TC 35 996 -13.3000 110.000 1 10 -13.2000 109.500 TC 40 995 12 94

About IBTrACS Database

This database is a web-friendly format of International Best Track Archive for Climate Stewardship (IBTrACS), a global best track data archive curated by NOAA dating back to 1842.

Updated: 2021-10-08